sensor_id;sensor_type;location;lat;lon;timestamp;P1;durP1;ratioP1;P2;durP2;ratioP2
21128;SDS011;10722;51.910;8.352;2023-05-23T00:01:15;54.08;;;36.42;;
21128;SDS011;10722;51.910;8.352;2023-05-23T00:04:00;61.20;;;38.00;;
21128;SDS011;10722;51.910;8.352;2023-05-23T00:06:45;67.07;;;39.45;;
21128;SDS011;10722;51.910;8.352;2023-05-23T00:09:31;72.13;;;40.15;;
21128;SDS011;10722;51.910;8.352;2023-05-23T00:12:16;72.05;;;41.28;;
21128;SDS011;10722;51.910;8.352;2023-05-23T00:15:01;59.95;;;36.55;;
21128;SDS011;10722;51.910;8.352;2023-05-23T00:17:47;68.47;;;40.17;;
21128;SDS011;10722;51.910;8.352;2023-05-23T00:20:32;69.95;;;39.47;;
21128;SDS011;10722;51.910;8.352;2023-05-23T00:23:18;61.97;;;40.72;;
21128;SDS011;10722;51.910;8.352;2023-05-23T00:26:03;56.17;;;36.45;;
21128;SDS011;10722;51.910;8.352;2023-05-23T00:28:49;64.63;;;41.72;;
21128;SDS011;10722;51.910;8.352;2023-05-23T00:31:34;64.47;;;39.92;;
21128;SDS011;10722;51.910;8.352;2023-05-23T00:34:19;54.75;;;38.03;;
21128;SDS011;10722;51.910;8.352;2023-05-23T00:37:05;60.95;;;37.33;;
21128;SDS011;10722;51.910;8.352;2023-05-23T00:39:50;49.20;;;33.92;;
21128;SDS011;10722;51.910;8.352;2023-05-23T00:42:36;47.08;;;34.15;;
21128;SDS011;10722;51.910;8.352;2023-05-23T00:45:21;48.20;;;32.38;;
21128;SDS011;10722;51.910;8.352;2023-05-23T00:48:06;48.13;;;34.13;;
21128;SDS011;10722;51.910;8.352;2023-05-23T00:50:52;50.42;;;33.60;;
21128;SDS011;10722;51.910;8.352;2023-05-23T00:53:38;48.25;;;33.28;;
21128;SDS011;10722;51.910;8.352;2023-05-23T00:56:23;41.45;;;29.20;;
21128;SDS011;10722;51.910;8.352;2023-05-23T00:59:08;39.90;;;26.65;;
21128;SDS011;10722;51.910;8.352;2023-05-23T01:01:54;38.60;;;25.13;;
21128;SDS011;10722;51.910;8.352;2023-05-23T01:04:41;35.30;;;24.15;;
21128;SDS011;10722;51.910;8.352;2023-05-23T01:07:27;32.67;;;22.83;;
21128;SDS011;10722;51.910;8.352;2023-05-23T01:10:14;30.35;;;22.10;;
21128;SDS011;10722;51.910;8.352;2023-05-23T01:16:18;31.63;;;21.65;;
21128;SDS011;10722;51.910;8.352;2023-05-23T01:19:39;33.50;;;22.30;;
21128;SDS011;10722;51.910;8.352;2023-05-23T01:28:46;28.85;;;20.00;;
21128;SDS011;10722;51.910;8.352;2023-05-23T01:31:34;28.58;;;19.65;;
21128;SDS011;10722;51.910;8.352;2023-05-23T01:34:23;29.48;;;19.98;;
21128;SDS011;10722;51.910;8.352;2023-05-23T01:37:09;29.00;;;19.60;;
21128;SDS011;10722;51.910;8.352;2023-05-23T01:39:55;28.67;;;18.30;;
21128;SDS011;10722;51.910;8.352;2023-05-23T01:42:40;27.63;;;18.10;;
21128;SDS011;10722;51.910;8.352;2023-05-23T01:45:26;24.77;;;17.02;;
21128;SDS011;10722;51.910;8.352;2023-05-23T01:48:13;25.05;;;16.58;;
21128;SDS011;10722;51.910;8.352;2023-05-23T01:50:59;27.55;;;18.13;;
21128;SDS011;10722;51.910;8.352;2023-05-23T01:53:45;28.40;;;18.58;;
21128;SDS011;10722;51.910;8.352;2023-05-23T01:56:31;27.17;;;18.42;;
21128;SDS011;10722;51.910;8.352;2023-05-23T01:59:17;26.33;;;18.08;;
21128;SDS011;10722;51.910;8.352;2023-05-23T02:02:02;27.75;;;17.20;;
21128;SDS011;10722;51.910;8.352;2023-05-23T02:04:48;28.63;;;17.98;;
21128;SDS011;10722;51.910;8.352;2023-05-23T02:07:33;24.67;;;17.42;;
21128;SDS011;10722;51.910;8.352;2023-05-23T02:10:18;27.10;;;17.45;;
21128;SDS011;10722;51.910;8.352;2023-05-23T02:13:04;26.70;;;17.63;;
21128;SDS011;10722;51.910;8.352;2023-05-23T02:15:49;27.52;;;18.65;;
21128;SDS011;10722;51.910;8.352;2023-05-23T02:18:34;25.83;;;17.88;;
21128;SDS011;10722;51.910;8.352;2023-05-23T02:21:19;28.73;;;18.88;;
21128;SDS011;10722;51.910;8.352;2023-05-23T02:24:05;29.35;;;19.30;;
21128;SDS011;10722;51.910;8.352;2023-05-23T02:26:50;27.67;;;18.02;;
21128;SDS011;10722;51.910;8.352;2023-05-23T02:29:35;28.63;;;18.75;;
21128;SDS011;10722;51.910;8.352;2023-05-23T02:32:21;29.08;;;19.65;;
21128;SDS011;10722;51.910;8.352;2023-05-23T02:35:06;27.85;;;19.60;;
21128;SDS011;10722;51.910;8.352;2023-05-23T02:37:52;30.05;;;19.45;;
21128;SDS011;10722;51.910;8.352;2023-05-23T02:40:37;29.55;;;19.10;;
21128;SDS011;10722;51.910;8.352;2023-05-23T02:43:24;31.65;;;20.35;;
21128;SDS011;10722;51.910;8.352;2023-05-23T02:46:09;29.27;;;19.83;;
21128;SDS011;10722;51.910;8.352;2023-05-23T02:48:55;30.60;;;19.90;;
21128;SDS011;10722;51.910;8.352;2023-05-23T02:51:40;30.98;;;20.02;;
21128;SDS011;10722;51.910;8.352;2023-05-23T02:54:25;29.95;;;19.88;;
21128;SDS011;10722;51.910;8.352;2023-05-23T02:57:10;29.63;;;20.92;;
21128;SDS011;10722;51.910;8.352;2023-05-23T02:59:56;31.60;;;21.33;;
21128;SDS011;10722;51.910;8.352;2023-05-23T03:02:41;31.98;;;21.10;;
21128;SDS011;10722;51.910;8.352;2023-05-23T03:05:27;34.38;;;20.92;;
21128;SDS011;10722;51.910;8.352;2023-05-23T03:08:12;31.10;;;20.73;;
21128;SDS011;10722;51.910;8.352;2023-05-23T03:10:57;32.65;;;20.60;;
21128;SDS011;10722;51.910;8.352;2023-05-23T03:13:42;31.73;;;21.15;;
21128;SDS011;10722;51.910;8.352;2023-05-23T03:16:28;31.40;;;21.83;;
21128;SDS011;10722;51.910;8.352;2023-05-23T03:19:13;32.08;;;21.73;;
21128;SDS011;10722;51.910;8.352;2023-05-23T03:21:59;35.05;;;21.95;;
21128;SDS011;10722;51.910;8.352;2023-05-23T03:24:44;34.50;;;23.17;;
21128;SDS011;10722;51.910;8.352;2023-05-23T03:27:29;35.88;;;22.77;;
21128;SDS011;10722;51.910;8.352;2023-05-23T03:30:15;38.90;;;24.63;;
21128;SDS011;10722;51.910;8.352;2023-05-23T03:33:00;36.47;;;23.67;;
21128;SDS011;10722;51.910;8.352;2023-05-23T03:35:46;39.15;;;25.02;;
21128;SDS011;10722;51.910;8.352;2023-05-23T03:38:31;35.83;;;23.30;;
21128;SDS011;10722;51.910;8.352;2023-05-23T03:41:16;36.05;;;23.80;;
21128;SDS011;10722;51.910;8.352;2023-05-23T03:44:02;38.53;;;24.23;;
21128;SDS011;10722;51.910;8.352;2023-05-23T03:46:47;38.03;;;24.80;;
21128;SDS011;10722;51.910;8.352;2023-05-23T03:49:33;39.10;;;24.98;;
21128;SDS011;10722;51.910;8.352;2023-05-23T03:52:18;46.30;;;28.85;;
21128;SDS011;10722;51.910;8.352;2023-05-23T03:55:03;41.40;;;26.92;;
21128;SDS011;10722;51.910;8.352;2023-05-23T03:57:52;43.70;;;27.48;;
21128;SDS011;10722;51.910;8.352;2023-05-23T04:00:37;47.95;;;28.55;;
21128;SDS011;10722;51.910;8.352;2023-05-23T04:03:23;45.70;;;27.25;;
21128;SDS011;10722;51.910;8.352;2023-05-23T04:06:08;43.63;;;27.17;;
21128;SDS011;10722;51.910;8.352;2023-05-23T04:08:56;45.90;;;28.40;;
21128;SDS011;10722;51.910;8.352;2023-05-23T04:11:42;48.47;;;30.10;;
21128;SDS011;10722;51.910;8.352;2023-05-23T04:14:27;48.50;;;30.35;;
21128;SDS011;10722;51.910;8.352;2023-05-23T04:17:12;46.55;;;29.85;;
21128;SDS011;10722;51.910;8.352;2023-05-23T04:19:57;48.45;;;29.52;;
21128;SDS011;10722;51.910;8.352;2023-05-23T04:22:42;50.72;;;30.77;;
21128;SDS011;10722;51.910;8.352;2023-05-23T04:25:28;53.92;;;30.88;;
21128;SDS011;10722;51.910;8.352;2023-05-23T04:28:12;55.97;;;32.25;;
21128;SDS011;10722;51.910;8.352;2023-05-23T04:30:58;51.53;;;31.05;;
21128;SDS011;10722;51.910;8.352;2023-05-23T04:33:43;50.15;;;30.10;;
21128;SDS011;10722;51.910;8.352;2023-05-23T04:36:28;51.60;;;31.33;;
21128;SDS011;10722;51.910;8.352;2023-05-23T04:39:14;51.60;;;30.77;;
21128;SDS011;10722;51.910;8.352;2023-05-23T04:42:00;49.47;;;30.40;;
21128;SDS011;10722;51.910;8.352;2023-05-23T04:44:45;48.90;;;29.67;;
21128;SDS011;10722;51.910;8.352;2023-05-23T04:47:30;49.63;;;29.25;;
21128;SDS011;10722;51.910;8.352;2023-05-23T04:50:15;48.42;;;30.30;;
21128;SDS011;10722;51.910;8.352;2023-05-23T04:53:01;45.10;;;28.35;;
21128;SDS011;10722;51.910;8.352;2023-05-23T04:55:46;48.40;;;30.00;;
21128;SDS011;10722;51.910;8.352;2023-05-23T04:58:31;41.53;;;27.67;;
21128;SDS011;10722;51.910;8.352;2023-05-23T05:01:16;45.08;;;27.65;;
21128;SDS011;10722;51.910;8.352;2023-05-23T05:04:02;49.40;;;27.70;;
21128;SDS011;10722;51.910;8.352;2023-05-23T05:06:47;45.67;;;27.48;;
21128;SDS011;10722;51.910;8.352;2023-05-23T05:09:33;44.58;;;27.17;;
21128;SDS011;10722;51.910;8.352;2023-05-23T05:12:18;41.45;;;25.60;;
21128;SDS011;10722;51.910;8.352;2023-05-23T05:15:03;46.97;;;26.85;;
21128;SDS011;10722;51.910;8.352;2023-05-23T05:17:49;41.17;;;26.42;;
21128;SDS011;10722;51.910;8.352;2023-05-23T05:20:34;37.60;;;26.05;;
21128;SDS011;10722;51.910;8.352;2023-05-23T05:23:20;41.47;;;25.70;;
21128;SDS011;10722;51.910;8.352;2023-05-23T05:26:09;38.95;;;25.33;;
21128;SDS011;10722;51.910;8.352;2023-05-23T05:28:54;40.83;;;26.38;;
21128;SDS011;10722;51.910;8.352;2023-05-23T05:31:39;41.00;;;25.88;;
21128;SDS011;10722;51.910;8.352;2023-05-23T05:34:25;49.65;;;27.30;;
21128;SDS011;10722;51.910;8.352;2023-05-23T05:37:10;47.78;;;25.88;;
21128;SDS011;10722;51.910;8.352;2023-05-23T05:39:56;46.47;;;26.73;;
21128;SDS011;10722;51.910;8.352;2023-05-23T05:42:41;38.47;;;24.50;;
21128;SDS011;10722;51.910;8.352;2023-05-23T05:45:26;39.55;;;25.42;;
21128;SDS011;10722;51.910;8.352;2023-05-23T05:48:12;40.15;;;27.27;;
21128;SDS011;10722;51.910;8.352;2023-05-23T05:50:57;43.58;;;26.52;;
21128;SDS011;10722;51.910;8.352;2023-05-23T05:53:43;48.58;;;28.65;;
21128;SDS011;10722;51.910;8.352;2023-05-23T05:56:28;45.22;;;28.65;;
21128;SDS011;10722;51.910;8.352;2023-05-23T05:59:13;45.47;;;29.13;;
21128;SDS011;10722;51.910;8.352;2023-05-23T06:01:58;48.13;;;29.10;;
21128;SDS011;10722;51.910;8.352;2023-05-23T06:04:43;51.53;;;30.67;;
21128;SDS011;10722;51.910;8.352;2023-05-23T06:07:29;47.25;;;30.05;;
21128;SDS011;10722;51.910;8.352;2023-05-23T06:10:14;49.58;;;29.50;;
21128;SDS011;10722;51.910;8.352;2023-05-23T06:12:59;46.25;;;29.15;;
21128;SDS011;10722;51.910;8.352;2023-05-23T06:15:45;51.33;;;30.25;;
21128;SDS011;10722;51.910;8.352;2023-05-23T06:18:30;51.05;;;31.23;;
21128;SDS011;10722;51.910;8.352;2023-05-23T06:21:16;55.17;;;32.17;;
21128;SDS011;10722;51.910;8.352;2023-05-23T06:24:01;54.95;;;31.38;;
21128;SDS011;10722;51.910;8.352;2023-05-23T06:26:46;49.38;;;31.85;;
21128;SDS011;10722;51.910;8.352;2023-05-23T06:29:32;47.20;;;29.08;;
21128;SDS011;10722;51.910;8.352;2023-05-23T06:32:17;51.50;;;31.73;;
21128;SDS011;10722;51.910;8.352;2023-05-23T06:35:02;51.35;;;28.80;;
21128;SDS011;10722;51.910;8.352;2023-05-23T06:37:48;47.22;;;28.85;;
21128;SDS011;10722;51.910;8.352;2023-05-23T06:40:33;51.50;;;28.48;;
21128;SDS011;10722;51.910;8.352;2023-05-23T06:43:18;47.00;;;26.60;;
21128;SDS011;10722;51.910;8.352;2023-05-23T06:46:04;42.22;;;24.85;;
21128;SDS011;10722;51.910;8.352;2023-05-23T06:48:49;42.85;;;24.10;;
21128;SDS011;10722;51.910;8.352;2023-05-23T06:51:50;43.83;;;24.55;;
21128;SDS011;10722;51.910;8.352;2023-05-23T06:54:36;40.60;;;22.42;;
21128;SDS011;10722;51.910;8.352;2023-05-23T06:57:21;40.20;;;21.98;;
21128;SDS011;10722;51.910;8.352;2023-05-23T07:00:06;42.47;;;22.92;;
21128;SDS011;10722;51.910;8.352;2023-05-23T07:02:52;36.13;;;19.77;;
21128;SDS011;10722;51.910;8.352;2023-05-23T07:05:37;34.67;;;18.40;;
21128;SDS011;10722;51.910;8.352;2023-05-23T07:08:25;33.15;;;17.23;;
21128;SDS011;10722;51.910;8.352;2023-05-23T07:11:10;31.60;;;16.30;;
21128;SDS011;10722;51.910;8.352;2023-05-23T07:13:56;26.58;;;13.38;;
21128;SDS011;10722;51.910;8.352;2023-05-23T07:16:41;24.95;;;13.10;;
21128;SDS011;10722;51.910;8.352;2023-05-23T07:19:27;22.58;;;12.30;;
21128;SDS011;10722;51.910;8.352;2023-05-23T07:22:12;24.65;;;13.90;;
21128;SDS011;10722;51.910;8.352;2023-05-23T07:24:58;26.17;;;12.60;;
21128;SDS011;10722;51.910;8.352;2023-05-23T07:27:43;23.58;;;11.95;;
21128;SDS011;10722;51.910;8.352;2023-05-23T07:30:28;19.20;;;9.65;;
21128;SDS011;10722;51.910;8.352;2023-05-23T07:33:17;18.40;;;8.65;;
21128;SDS011;10722;51.910;8.352;2023-05-23T07:36:02;17.05;;;7.53;;
21128;SDS011;10722;51.910;8.352;2023-05-23T07:38:47;15.48;;;6.88;;
21128;SDS011;10722;51.910;8.352;2023-05-23T07:41:32;15.25;;;5.90;;
21128;SDS011;10722;51.910;8.352;2023-05-23T07:44:18;13.20;;;5.30;;
21128;SDS011;10722;51.910;8.352;2023-05-23T07:47:06;15.35;;;5.57;;
21128;SDS011;10722;51.910;8.352;2023-05-23T07:49:50;16.10;;;5.55;;
21128;SDS011;10722;51.910;8.352;2023-05-23T07:52:36;13.85;;;5.90;;
21128;SDS011;10722;51.910;8.352;2023-05-23T07:55:21;12.18;;;4.65;;
21128;SDS011;10722;51.910;8.352;2023-05-23T07:58:06;9.30;;;3.95;;
21128;SDS011;10722;51.910;8.352;2023-05-23T08:00:51;10.25;;;4.03;;
21128;SDS011;10722;51.910;8.352;2023-05-23T08:03:37;9.38;;;3.40;;
21128;SDS011;10722;51.910;8.352;2023-05-23T08:06:22;12.13;;;3.67;;
21128;SDS011;10722;51.910;8.352;2023-05-23T08:09:08;10.70;;;3.28;;
21128;SDS011;10722;51.910;8.352;2023-05-23T08:11:53;9.50;;;3.17;;
21128;SDS011;10722;51.910;8.352;2023-05-23T08:14:38;9.90;;;3.47;;
21128;SDS011;10722;51.910;8.352;2023-05-23T08:17:36;12.20;;;3.80;;
21128;SDS011;10722;51.910;8.352;2023-05-23T08:20:21;12.38;;;4.20;;
21128;SDS011;10722;51.910;8.352;2023-05-23T08:23:06;15.75;;;6.53;;
21128;SDS011;10722;51.910;8.352;2023-05-23T08:25:51;45.75;;;31.92;;
21128;SDS011;10722;51.910;8.352;2023-05-23T08:28:38;12.00;;;5.10;;
21128;SDS011;10722;51.910;8.352;2023-05-23T08:31:23;11.75;;;4.55;;
21128;SDS011;10722;51.910;8.352;2023-05-23T08:34:09;13.15;;;4.35;;
21128;SDS011;10722;51.910;8.352;2023-05-23T08:36:55;15.00;;;4.45;;
21128;SDS011;10722;51.910;8.352;2023-05-23T08:39:40;14.20;;;4.70;;
21128;SDS011;10722;51.910;8.352;2023-05-23T08:42:25;15.25;;;4.43;;
21128;SDS011;10722;51.910;8.352;2023-05-23T08:45:11;13.95;;;4.63;;
21128;SDS011;10722;51.910;8.352;2023-05-23T08:47:56;13.10;;;4.72;;
21128;SDS011;10722;51.910;8.352;2023-05-23T08:50:45;14.35;;;4.60;;
21128;SDS011;10722;51.910;8.352;2023-05-23T08:53:31;13.20;;;4.28;;
21128;SDS011;10722;51.910;8.352;2023-05-23T08:56:20;14.18;;;4.70;;
21128;SDS011;10722;51.910;8.352;2023-05-23T08:59:06;16.98;;;4.78;;
21128;SDS011;10722;51.910;8.352;2023-05-23T09:01:53;13.23;;;4.47;;
21128;SDS011;10722;51.910;8.352;2023-05-23T09:04:39;14.85;;;4.38;;
21128;SDS011;10722;51.910;8.352;2023-05-23T09:07:25;16.85;;;4.90;;
21128;SDS011;10722;51.910;8.352;2023-05-23T09:10:12;14.50;;;5.15;;
21128;SDS011;10722;51.910;8.352;2023-05-23T09:12:58;14.43;;;4.68;;
21128;SDS011;10722;51.910;8.352;2023-05-23T09:18:42;15.80;;;5.30;;
21128;SDS011;10722;51.910;8.352;2023-05-23T09:21:28;41.83;;;26.13;;
21128;SDS011;10722;51.910;8.352;2023-05-23T09:24:15;21.98;;;9.52;;
21128;SDS011;10722;51.910;8.352;2023-05-23T09:27:00;16.23;;;5.28;;
21128;SDS011;10722;51.910;8.352;2023-05-23T09:29:46;12.95;;;4.68;;
21128;SDS011;10722;51.910;8.352;2023-05-23T09:32:32;15.55;;;5.30;;
21128;SDS011;10722;51.910;8.352;2023-05-23T09:35:19;16.27;;;5.50;;
21128;SDS011;10722;51.910;8.352;2023-05-23T09:38:07;16.02;;;5.60;;
21128;SDS011;10722;51.910;8.352;2023-05-23T09:40:53;16.25;;;6.18;;
21128;SDS011;10722;51.910;8.352;2023-05-23T09:43:39;18.58;;;6.50;;
21128;SDS011;10722;51.910;8.352;2023-05-23T09:46:34;18.23;;;7.47;;
21128;SDS011;10722;51.910;8.352;2023-05-23T09:49:20;20.85;;;7.72;;
21128;SDS011;10722;51.910;8.352;2023-05-23T09:52:06;23.25;;;8.77;;
21128;SDS011;10722;51.910;8.352;2023-05-23T09:54:51;25.83;;;9.63;;
21128;SDS011;10722;51.910;8.352;2023-05-23T09:57:39;23.83;;;9.57;;
21128;SDS011;10722;51.910;8.352;2023-05-23T10:00:25;25.33;;;10.35;;
21128;SDS011;10722;51.910;8.352;2023-05-23T10:03:11;25.45;;;9.40;;
21128;SDS011;10722;51.910;8.352;2023-05-23T10:06:06;23.50;;;8.65;;
21128;SDS011;10722;51.910;8.352;2023-05-23T10:09:04;23.00;;;8.55;;
21128;SDS011;10722;51.910;8.352;2023-05-23T10:14:53;21.13;;;7.50;;
21128;SDS011;10722;51.910;8.352;2023-05-23T10:17:45;19.95;;;7.75;;
21128;SDS011;10722;51.910;8.352;2023-05-23T10:20:39;22.55;;;8.60;;
21128;SDS011;10722;51.910;8.352;2023-05-23T10:23:31;21.92;;;8.38;;
21128;SDS011;10722;51.910;8.352;2023-05-23T10:26:17;21.98;;;7.88;;
21128;SDS011;10722;51.910;8.352;2023-05-23T10:29:05;25.83;;;8.23;;
21128;SDS011;10722;51.910;8.352;2023-05-23T10:31:50;24.08;;;8.80;;
21128;SDS011;10722;51.910;8.352;2023-05-23T10:37:32;22.95;;;9.07;;
21128;SDS011;10722;51.910;8.352;2023-05-23T10:43:48;19.13;;;8.13;;
21128;SDS011;10722;51.910;8.352;2023-05-23T10:46:49;20.10;;;7.78;;
21128;SDS011;10722;51.910;8.352;2023-05-23T10:49:42;19.35;;;6.78;;
21128;SDS011;10722;51.910;8.352;2023-05-23T10:52:29;19.27;;;7.25;;
21128;SDS011;10722;51.910;8.352;2023-05-23T10:55:23;16.80;;;6.60;;
21128;SDS011;10722;51.910;8.352;2023-05-23T10:58:14;23.27;;;7.28;;
21128;SDS011;10722;51.910;8.352;2023-05-23T11:01:07;19.95;;;7.50;;
21128;SDS011;10722;51.910;8.352;2023-05-23T11:03:53;20.33;;;7.00;;
21128;SDS011;10722;51.910;8.352;2023-05-23T11:06:41;20.23;;;7.32;;
21128;SDS011;10722;51.910;8.352;2023-05-23T11:09:27;21.42;;;6.35;;
21128;SDS011;10722;51.910;8.352;2023-05-23T11:12:12;29.15;;;12.70;;
21128;SDS011;10722;51.910;8.352;2023-05-23T11:14:58;26.63;;;7.90;;
21128;SDS011;10722;51.910;8.352;2023-05-23T11:17:50;21.10;;;6.82;;
21128;SDS011;10722;51.910;8.352;2023-05-23T11:20:37;20.73;;;7.00;;
21128;SDS011;10722;51.910;8.352;2023-05-23T11:23:23;21.00;;;6.95;;
21128;SDS011;10722;51.910;8.352;2023-05-23T11:26:30;23.00;;;6.45;;
21128;SDS011;10722;51.910;8.352;2023-05-23T11:29:16;22.17;;;6.50;;
21128;SDS011;10722;51.910;8.352;2023-05-23T11:32:12;21.52;;;6.40;;
21128;SDS011;10722;51.910;8.352;2023-05-23T11:35:02;21.63;;;5.88;;
21128;SDS011;10722;51.910;8.352;2023-05-23T11:37:48;19.38;;;5.82;;
21128;SDS011;10722;51.910;8.352;2023-05-23T11:43:23;23.95;;;5.57;;
21128;SDS011;10722;51.910;8.352;2023-05-23T11:46:08;25.73;;;5.57;;
21128;SDS011;10722;51.910;8.352;2023-05-23T11:48:54;22.00;;;5.50;;
21128;SDS011;10722;51.910;8.352;2023-05-23T11:51:39;22.85;;;5.40;;
21128;SDS011;10722;51.910;8.352;2023-05-23T11:54:25;23.02;;;5.53;;
21128;SDS011;10722;51.910;8.352;2023-05-23T11:57:11;25.25;;;5.70;;
21128;SDS011;10722;51.910;8.352;2023-05-23T11:59:57;26.63;;;6.10;;
21128;SDS011;10722;51.910;8.352;2023-05-23T12:02:43;23.80;;;4.93;;
21128;SDS011;10722;51.910;8.352;2023-05-23T12:05:29;19.38;;;5.15;;
21128;SDS011;10722;51.910;8.352;2023-05-23T12:08:14;24.33;;;5.35;;
21128;SDS011;10722;51.910;8.352;2023-05-23T12:11:00;22.80;;;5.28;;
21128;SDS011;10722;51.910;8.352;2023-05-23T12:13:46;24.17;;;6.00;;
21128;SDS011;10722;51.910;8.352;2023-05-23T12:16:32;22.13;;;5.10;;
21128;SDS011;10722;51.910;8.352;2023-05-23T12:19:18;25.17;;;5.32;;
21128;SDS011;10722;51.910;8.352;2023-05-23T12:22:05;21.58;;;5.15;;
21128;SDS011;10722;51.910;8.352;2023-05-23T12:24:54;23.60;;;5.13;;
21128;SDS011;10722;51.910;8.352;2023-05-23T12:27:40;24.55;;;5.82;;
21128;SDS011;10722;51.910;8.352;2023-05-23T12:30:25;21.33;;;5.65;;
21128;SDS011;10722;51.910;8.352;2023-05-23T12:33:11;20.73;;;5.60;;
21128;SDS011;10722;51.910;8.352;2023-05-23T12:35:57;22.83;;;5.13;;
21128;SDS011;10722;51.910;8.352;2023-05-23T12:38:42;20.65;;;5.15;;
21128;SDS011;10722;51.910;8.352;2023-05-23T12:41:27;24.00;;;6.45;;
21128;SDS011;10722;51.910;8.352;2023-05-23T12:44:15;24.45;;;6.63;;
21128;SDS011;10722;51.910;8.352;2023-05-23T12:47:01;26.05;;;6.35;;
21128;SDS011;10722;51.910;8.352;2023-05-23T12:49:47;22.02;;;5.90;;
21128;SDS011;10722;51.910;8.352;2023-05-23T12:52:33;24.23;;;5.03;;
21128;SDS011;10722;51.910;8.352;2023-05-23T12:55:18;19.45;;;4.90;;
21128;SDS011;10722;51.910;8.352;2023-05-23T12:58:03;24.00;;;5.60;;
21128;SDS011;10722;51.910;8.352;2023-05-23T13:00:49;22.63;;;5.90;;
21128;SDS011;10722;51.910;8.352;2023-05-23T13:03:34;21.98;;;5.13;;
21128;SDS011;10722;51.910;8.352;2023-05-23T13:06:20;23.92;;;5.20;;
21128;SDS011;10722;51.910;8.352;2023-05-23T13:09:05;22.80;;;5.65;;
21128;SDS011;10722;51.910;8.352;2023-05-23T13:11:51;22.33;;;5.28;;
21128;SDS011;10722;51.910;8.352;2023-05-23T13:14:36;23.08;;;5.85;;
21128;SDS011;10722;51.910;8.352;2023-05-23T13:17:22;20.25;;;5.18;;
21128;SDS011;10722;51.910;8.352;2023-05-23T13:20:07;24.08;;;5.30;;
21128;SDS011;10722;51.910;8.352;2023-05-23T13:22:55;22.20;;;5.00;;
21128;SDS011;10722;51.910;8.352;2023-05-23T13:25:43;21.58;;;5.18;;
21128;SDS011;10722;51.910;8.352;2023-05-23T13:28:29;24.58;;;6.10;;
21128;SDS011;10722;51.910;8.352;2023-05-23T13:31:14;21.13;;;5.20;;
21128;SDS011;10722;51.910;8.352;2023-05-23T13:34:00;21.98;;;4.97;;
21128;SDS011;10722;51.910;8.352;2023-05-23T13:36:45;53.55;;;28.52;;
21128;SDS011;10722;51.910;8.352;2023-05-23T13:39:30;24.80;;;6.47;;
21128;SDS011;10722;51.910;8.352;2023-05-23T13:42:16;23.23;;;5.47;;
21128;SDS011;10722;51.910;8.352;2023-05-23T13:45:01;20.58;;;5.30;;
21128;SDS011;10722;51.910;8.352;2023-05-23T13:47:46;18.52;;;4.82;;
21128;SDS011;10722;51.910;8.352;2023-05-23T13:50:32;23.08;;;5.93;;
21128;SDS011;10722;51.910;8.352;2023-05-23T13:53:17;20.35;;;5.22;;
21128;SDS011;10722;51.910;8.352;2023-05-23T13:56:03;19.98;;;4.78;;
21128;SDS011;10722;51.910;8.352;2023-05-23T13:58:48;23.42;;;5.30;;
21128;SDS011;10722;51.910;8.352;2023-05-23T14:01:33;24.98;;;5.65;;
21128;SDS011;10722;51.910;8.352;2023-05-23T14:04:19;25.23;;;5.13;;
21128;SDS011;10722;51.910;8.352;2023-05-23T14:07:04;22.63;;;4.90;;
21128;SDS011;10722;51.910;8.352;2023-05-23T14:09:49;21.77;;;5.38;;
21128;SDS011;10722;51.910;8.352;2023-05-23T14:12:34;19.08;;;5.20;;
21128;SDS011;10722;51.910;8.352;2023-05-23T14:15:20;22.25;;;5.10;;
21128;SDS011;10722;51.910;8.352;2023-05-23T14:18:05;23.67;;;5.07;;
21128;SDS011;10722;51.910;8.352;2023-05-23T14:20:51;20.83;;;5.53;;
21128;SDS011;10722;51.910;8.352;2023-05-23T14:23:36;23.13;;;5.10;;
21128;SDS011;10722;51.910;8.352;2023-05-23T14:26:21;20.83;;;4.57;;
21128;SDS011;10722;51.910;8.352;2023-05-23T14:29:06;19.52;;;4.97;;
21128;SDS011;10722;51.910;8.352;2023-05-23T14:31:52;20.63;;;4.80;;
21128;SDS011;10722;51.910;8.352;2023-05-23T14:34:37;21.08;;;5.10;;
21128;SDS011;10722;51.910;8.352;2023-05-23T14:37:24;24.85;;;5.82;;
21128;SDS011;10722;51.910;8.352;2023-05-23T14:40:09;20.70;;;4.82;;
21128;SDS011;10722;51.910;8.352;2023-05-23T14:42:55;21.70;;;4.68;;
21128;SDS011;10722;51.910;8.352;2023-05-23T14:45:40;18.95;;;4.38;;
21128;SDS011;10722;51.910;8.352;2023-05-23T14:48:26;22.65;;;4.80;;
21128;SDS011;10722;51.910;8.352;2023-05-23T14:51:11;18.10;;;4.68;;
21128;SDS011;10722;51.910;8.352;2023-05-23T14:54:14;19.80;;;4.68;;
21128;SDS011;10722;51.910;8.352;2023-05-23T14:57:00;21.27;;;4.65;;
21128;SDS011;10722;51.910;8.352;2023-05-23T14:59:46;20.90;;;4.63;;
21128;SDS011;10722;51.910;8.352;2023-05-23T15:02:31;20.33;;;5.10;;
21128;SDS011;10722;51.910;8.352;2023-05-23T15:05:16;21.70;;;5.03;;
21128;SDS011;10722;51.910;8.352;2023-05-23T15:08:02;24.58;;;4.90;;
21128;SDS011;10722;51.910;8.352;2023-05-23T15:10:47;20.15;;;4.60;;
21128;SDS011;10722;51.910;8.352;2023-05-23T15:13:33;23.02;;;4.68;;
21128;SDS011;10722;51.910;8.352;2023-05-23T15:16:19;21.50;;;4.68;;
21128;SDS011;10722;51.910;8.352;2023-05-23T15:19:05;20.77;;;5.18;;
21128;SDS011;10722;51.910;8.352;2023-05-23T15:21:50;18.88;;;4.43;;
21128;SDS011;10722;51.910;8.352;2023-05-23T15:24:36;24.38;;;4.80;;
21128;SDS011;10722;51.910;8.352;2023-05-23T15:27:25;22.38;;;5.20;;
21128;SDS011;10722;51.910;8.352;2023-05-23T15:30:11;19.90;;;4.38;;
21128;SDS011;10722;51.910;8.352;2023-05-23T15:32:57;20.80;;;4.60;;
21128;SDS011;10722;51.910;8.352;2023-05-23T15:35:45;19.67;;;4.40;;
21128;SDS011;10722;51.910;8.352;2023-05-23T15:38:31;18.38;;;4.20;;
21128;SDS011;10722;51.910;8.352;2023-05-23T15:41:17;17.25;;;4.28;;
21128;SDS011;10722;51.910;8.352;2023-05-23T15:44:02;17.23;;;4.35;;
21128;SDS011;10722;51.910;8.352;2023-05-23T15:46:49;19.23;;;4.10;;
21128;SDS011;10722;51.910;8.352;2023-05-23T15:49:35;20.05;;;4.38;;
21128;SDS011;10722;51.910;8.352;2023-05-23T15:52:20;19.20;;;4.72;;
21128;SDS011;10722;51.910;8.352;2023-05-23T15:55:06;19.52;;;4.68;;
21128;SDS011;10722;51.910;8.352;2023-05-23T15:57:52;20.10;;;4.18;;
21128;SDS011;10722;51.910;8.352;2023-05-23T16:00:37;19.60;;;4.20;;
21128;SDS011;10722;51.910;8.352;2023-05-23T16:03:23;19.75;;;4.70;;
21128;SDS011;10722;51.910;8.352;2023-05-23T16:06:08;20.88;;;4.30;;
21128;SDS011;10722;51.910;8.352;2023-05-23T16:08:53;19.67;;;4.15;;
21128;SDS011;10722;51.910;8.352;2023-05-23T16:11:38;19.35;;;3.78;;
21128;SDS011;10722;51.910;8.352;2023-05-23T16:14:24;17.83;;;4.03;;
21128;SDS011;10722;51.910;8.352;2023-05-23T16:17:09;22.63;;;4.35;;
21128;SDS011;10722;51.910;8.352;2023-05-23T16:19:54;20.38;;;4.10;;
21128;SDS011;10722;51.910;8.352;2023-05-23T16:22:40;22.40;;;4.82;;
21128;SDS011;10722;51.910;8.352;2023-05-23T16:25:25;20.35;;;4.32;;
21128;SDS011;10722;51.910;8.352;2023-05-23T16:28:10;18.67;;;4.18;;
21128;SDS011;10722;51.910;8.352;2023-05-23T16:30:55;18.50;;;4.32;;
21128;SDS011;10722;51.910;8.352;2023-05-23T16:33:41;16.92;;;4.15;;
21128;SDS011;10722;51.910;8.352;2023-05-23T16:36:27;17.83;;;4.05;;
21128;SDS011;10722;51.910;8.352;2023-05-23T16:39:12;21.15;;;4.28;;
21128;SDS011;10722;51.910;8.352;2023-05-23T16:41:58;21.38;;;4.25;;
21128;SDS011;10722;51.910;8.352;2023-05-23T16:44:44;18.50;;;3.85;;